Terminal Aerodrome Forecast
Issued by NWS

Home | Current Version | Previous Version | Text Only | Print | Product List | Glossary On
Versions: 1 2 3 4 5 6 7 8 9 10 11 12 13 14 15 16
756
FTUS43 KDVN 290520
TAFCID
TAF
KCID 290520Z 2906/3006 35007KT P6SM SKC
     FM291500 36010G17KT P6SM SCT040
     FM292300 01006KT P6SM BKN080=

USA.gov is the U.S. government's official web portal to all federal, state and local government web resources and services.